Gnadenhutten, OH (44629)

8:06 AM EDT on May 27, 2015 (GMT -0400)
OHDOT | | Change Station
CLOSE
Current Station
Personal Weather Station
Location: Dennison, OH
Elevation: 879 ft
Nearby Weather Stations

Elev 879 ft 40.40 °N, 81.33 °W | Updated 22 minutes ago

Overcast
Overcast
68 °F
Feels Like 68 °F
N
2
Wind Variable Wind from SW
Gusts 6.0 mph

Today
High -- | Low -- °F
--% Chance of Precip.
Yesterday
High -- | Low -- °F
Precip. -- in
6:00 AM 8:45 PM
Waxing Gibbous, 67% visible
Pressure 30.11 in
Visibility 6.0 miles
Clouds Scattered Clouds 1000 ft
Overcast 1600 ft
Dew Point 65 °F
Humidity 90%
Rainfall in
Snow Depth Not available.
UV 0 out of 12
Pollen 8.10 out of 12
Air Quality Not available.
Flu Activity Local Activity
METAR KZZV 271153Z AUTO 22005KT 6SM BR SCT010 OVC016 19/18 A3012 RMK AO2 SLP194 70036 T01940178 10200 20189 52012

More Conditions Fewer Conditions

Pressure 30.11 in
Visibility 6.0 miles
Clouds Scattered Clouds 1000 ft
Overcast 1600 ft
Dew Point 65 °F
Humidity 90%
Rainfall in
Snow Depth Not available.
UV 0 out of 12
Pollen 8.10 out of 12
Air Quality Not available.
Flu Activity Local Activity
METAR KZZV 271153Z AUTO 22005KT 6SM BR SCT010 OVC016 19/18 A3012 RMK AO2 SLP194 70036 T01940178 10200 20189 52012

More Conditions Fewer Conditions

10-Day Weather Forecast

Almanac

Astronomy

May. 27, 2015 Rise Set
Actual Time
Civil Twilight
Nautical Twilight
Astronomical Twilight
Moon
Length of Visible Light
Length of Day
Tomorrow will be .
, % of the Moon is Illuminated

Today's Extremes

State Highs State Lows

Community

WunderPhotos

Upload Photos

1,824,642 photos uploaded!

WunderBlogs® & News

Nearby

Air Quality

  Air Quality AQ Index Pollutant
Not available.

Snow Depth

Station Depth Elevation

Earthquake Activity

City Distance Mag. Time & Date
Minimum magnitude displayed is 2.5.

Coastal Water Temperatures

Place Temperature

Stations

Nearby Weather Stations

Station Location Temp. Windchill Dew Point Humidity Wind Precip. Elev Updated Type